Awendaw, SC

5:55 PM EDT on August 29, 2016 (GMT -0400)
Wellesley Place - Park West | | Change Station
Active Advisory: Coastal Hazard Statement

Elev 34 ft 32.89 °N, 79.79 °W | Updated 10 seconds ago

Light Rain
Light Rain
82.9 °F
Feels Like 94 °F
N
3.6
Wind Variable Wind from NNE
Gusts 4.9 mph

Today
High -- | Low -- °F
--% Chance of Precip.
Yesterday
High -- | Low -- °F
Precip. -- in
Pressure 30.05 in
Visibility 10.0 miles
Clouds Scattered Clouds 5000 ft
Scattered Clouds 8000 ft
Mostly Cloudy 15000 ft
Heat Index 94 °F
Dew Point 79 °F
Humidity 88%
Rainfall 0.18 in
Snow Depth Not available.
6:51 AM 7:46 PM
Waning Crescent, 7% visible
SPECI KCHS 292122Z COR 00000KT 10SM -RA SCT050 SCT080 BKN150 26/23 A3005 RMK AO2 LTG DSNT SW RAE03B19 TSE18 TS MOV W CB DSNT SW P0000 T02610233
Pressure 30.05 in
Visibility 10.0 miles
Clouds Scattered Clouds 5000 ft
Scattered Clouds 8000 ft
Mostly Cloudy 15000 ft
Heat Index 94 °F
Dew Point 79 °F
Humidity 88%
Rainfall 0.18 in
Snow Depth Not available.
6:51 AM 7:46 PM
Waning Crescent, 7% visible
SPECI KCHS 292122Z COR 00000KT 10SM -RA SCT050 SCT080 BKN150 26/23 A3005 RMK AO2 LTG DSNT SW RAE03B19 TSE18 TS MOV W CB DSNT SW P0000 T02610233
Tropical Depression Nine was centered about 170 miles west-southwest of Key West, Florida, as of late Monday morning. The depression may struggle a bit in the southern Gulf of Mexico before finally making a Gulf Coast landfall later this week with soaking rain and gusty winds.

This latest system was designated a tropical depression Sunday after a Hurricane Hunter reconnaissance mission finally found a sufficiently organized low-pressure center with collocated shower and thunderstorm activity.

10-Day Weather Forecast

Almanac

Astronomy

Aug. 29, 2016 Rise Set
Actual Time
Civil Twilight
Nautical Twilight
Astronomical Twilight
Moon
Length of Visible Light
Length of Day
Tomorrow will be .
, % of the Moon is Illuminated

Today's Extremes

State Highs State Lows

Community

WunderPhotos

Upload Photos

1,935,690 photos uploaded!

WunderBlog® & News

Nearby

Air Quality

  Air Quality AQ Index Pollutant
Not available.

Snow Depth

Station Depth Elevation

Earthquake Activity

City Distance Mag. Time & Date
Minimum magnitude displayed is 2.5.

Coastal Water Temperatures

Place Temperature

Stations

Nearby Weather Stations

Station Location Temp. Windchill Dew Point Humidity Wind Precip. Elev Updated Type
                   

Watches & Warnings

Coastal Hazard Statement
Issued: 3:29 PM EDT Aug. 29, 2016 – National Weather Service

... High rip current risk now in effect through Tuesday evening...

* rip currents... wind and wave conditions support the
development of very strong rip currents. These rip currents
will be life threatening to anyone who enters the surf.

Precautionary/preparedness actions...

No one should enter the surf due to life threatening rip
currents.